Terminal Aerodrome Forecast
Issued by NWS

Home | Current Version | Previous Version | Text Only | Print | Product List | Glossary On
Versions: 1 2 3 4 5 6 7 8 9 10 11 12 13 14 15 16 17 18 19 20 21 22 23 24 25 26 27 28 29 30
446
FTUS41 KOKX 261602 AAA
TAFTEB
TAF AMD
KTEB 261602Z 2616/2712 08010G18KT P6SM SCT020 OVC035
     FM261900 07008KT P6SM SCT025 BKN035
     FM270000 06006KT 6SM BR OVC015
     FM270200 04006KT 4SM -DZ BR OVC009
     FM270600 07004KT 2SM -DZ BR OVC006
     FM270900 07004KT 1SM -DZ BR OVC004=

USA.gov is the U.S. government's official web portal to all federal, state and local government web resources and services.